Park Heights, Pennsylvania
Current Conditions -  °F | °C
As of 2:53 PM on Saturday 20 Dec 2014 (Local Time) from KTHV Reporting Station
Few Clouds Few Clouds  
Wind Chill: 34°   Ceiling: Unl
Heat Index: 34°   Visibility: 10mi
Dew Point: 21°   Wind: 3mph
Humidity: 59%   Direction: 250°WSW
Pressure: 30.24"   Gusts: NA
Location:  39.7863°N, 76.988°W
Report Text: KTHV 201953Z AUTO 25003KT 10SM FEW029 01/M06 A3024 RMK AO2 SLP247 T00111061
Loading
Personal Weather Stations






























Interactive Weather Map New forecast layout! Learn more

10-Day Weather Forecast

Advertisements
Track Severe Weather on mobile